Time;durP1;ratioP1;P1;durP2;ratioP2;P2;SDS_P1;SDS_P2;PMS_P1;PMS_P2;Temp;Humidity;BMP_temperature;BMP_pressure;BME280_temperature;BME280_humidity;BME280_pressure;Samples;Min_cycle;Max_cycle;Signal;HPM_P1;HPM_P2
2021/04/03 00:00:37;;;;;;;114.17;52.62;;;;;;;1.72;70.03;96859.14;1793973;79;27494;-79
2021/04/03 00:03:09;;;;;;;103.25;51.30;;;;;;;1.74;70.07;96861.14;1793805;79;25338;-79
2021/04/03 00:05:38;;;;;;;100.78;53.10;;;;;;;1.73;70.12;96862.14;1793959;79;25714;-78
2021/04/03 00:08:07;;;;;;;108.07;52.85;;;;;;;1.74;70.14;96858.48;1761335;79;26490;-79
2021/04/03 00:10:40;;;;;;;98.78;51.35;;;;;;;1.71;70.16;96864.13;1793915;79;26215;-79
2021/04/03 00:13:08;;;;;;;105.75;52.83;;;;;;;1.71;70.27;96850.83;1793846;79;28544;-79
2021/04/03 00:15:36;;;;;;;98.33;49.95;;;;;;;1.73;70.27;96852.00;1793767;79;25809;-78
2021/04/03 00:18:04;;;;;;;100.27;49.65;;;;;;;1.74;70.27;96853.16;1793944;79;25774;-78
2021/04/03 00:20:34;;;;;;;109.22;51.15;;;;;;;1.76;70.33;96849.83;1796460;79;26510;-79
2021/04/03 00:23:03;;;;;;;177.47;70.03;;;;;;;1.78;70.40;96847.84;1800008;79;25747;-79
2021/04/03 00:25:33;;;;;;;196.50;81.20;;;;;;;1.81;70.37;96844.81;1799831;79;28408;-79
2021/04/03 00:28:01;;;;;;;125.42;58.52;;;;;;;1.84;70.42;96843.65;1781709;79;25668;-79
2021/04/03 00:30:29;;;;;;;211.55;70.95;;;;;;;1.85;70.35;96838.66;1767975;81;25722;-79
2021/04/03 00:32:59;;;;;;;134.70;60.17;;;;;;;1.83;70.32;96838.49;1767934;81;25827;-79
2021/04/03 00:35:34;;;;;;;149.60;58.10;;;;;;;1.86;70.34;96835.50;1767992;81;25777;-79
2021/04/03 00:38:02;;;;;;;122.20;53.50;;;;;;;1.89;70.42;96832.50;1773266;79;27515;-79
2021/04/03 00:40:37;;;;;;;93.27;48.30;;;;;;;1.92;70.42;96829.50;1767827;81;25762;-79
2021/04/03 00:43:09;;;;;;;92.25;47.85;;;;;;;1.90;70.42;96836.33;1768077;81;25672;-79
2021/04/03 00:45:37;;;;;;;88.00;47.78;;;;;;;1.94;70.41;96836.79;1767996;81;26471;-79
2021/04/03 00:48:06;;;;;;;97.37;50.17;;;;;;;1.96;70.50;96835.63;1768054;81;25727;-79
2021/04/03 00:50:40;;;;;;;103.20;51.53;;;;;;;1.99;70.49;96838.45;1767992;81;27507;-79
2021/04/03 00:53:12;;;;;;;96.08;50.45;;;;;;;2.00;70.57;96836.13;1767965;81;25730;-79
2021/04/03 00:55:40;;;;;;;106.20;49.80;;;;;;;2.01;70.54;96825.80;1768108;81;25726;-79
2021/04/03 00:58:09;;;;;;;89.22;48.13;;;;;;;2.00;70.52;96821.48;1767968;81;25735;-79
2021/04/03 01:00:38;;;;;;;89.60;48.95;;;;;;;2.00;70.47;96813.50;1768005;81;25671;-79
2021/04/03 01:03:07;;;;;;;81.30;45.38;;;;;;;2.02;70.42;96803.51;1767980;81;28618;-79
2021/04/03 01:05:35;;;;;;;87.30;46.30;;;;;;;2.02;70.38;96808.34;1793664;79;25702;-79
2021/04/03 01:08:03;;;;;;;80.80;42.65;;;;;;;2.02;70.39;96812.83;1795183;79;25724;-79
2021/04/03 01:10:38;;;;;;;84.55;44.05;;;;;;;2.01;70.40;96813.83;1795219;79;25731;-79
2021/04/03 01:13:26;;;;;;;85.45;46.30;;;;;;;1.94;70.41;96812.84;1788032;79;25786;-79
2021/04/03 01:16:14;;;;;;;87.70;45.35;;;;;;;1.87;70.44;96810.05;1765728;79;28428;-79
2021/04/03 01:19:13;;;;;;;86.65;45.23;;;;;;;1.84;70.57;96804.23;1756332;80;26130;-79
2021/04/03 01:22:11;;;;;;;88.60;45.25;;;;;;;1.83;70.67;96800.73;1748432;81;25968;-80
2021/04/03 01:25:13;;;;;;;231.53;91.15;;;;;;;1.80;70.67;96791.29;1849237;76;35154;-78
2021/04/03 01:28:19;;;;;;;179.03;70.78;;;;;;;1.74;70.62;96791.95;1735349;82;25856;-78
2021/04/03 01:30:48;;;;;;;158.10;62.53;;;;;;;1.72;70.61;96789.97;1735633;82;27726;-78
2021/04/03 01:33:20;;;;;;;141.47;56.85;;;;;;;1.71;70.59;96785.64;1735378;82;25765;-78
2021/04/03 01:38:41;;;;;;;81.97;42.50;;;;;;;1.66;70.58;96778.69;1849470;76;34797;-78
2021/04/03 01:41:10;;;;;;;74.35;39.63;;;;;;;1.53;70.55;96771.75;1820075;78;25790;-78
2021/04/03 01:43:45;;;;;;;76.40;40.70;;;;;;;1.46;70.63;96773.41;1820118;78;26782;-78
2021/04/03 01:46:15;;;;;;;76.80;42.05;;;;;;;1.42;70.63;96764.13;1820074;78;25786;-78
2021/04/03 01:48:44;;;;;;;74.20;39.45;;;;;;;1.38;70.58;96767.62;1820127;78;25669;-76
2021/04/03 01:51:15;;;;;;;73.37;38.83;;;;;;;1.36;70.57;96768.78;1815391;78;26518;-78
2021/04/03 01:53:45;;;;;;;76.55;40.08;;;;;;;1.29;70.52;96771.30;1787918;79;25809;-78
2021/04/03 01:56:13;;;;;;;74.53;39.18;;;;;;;1.20;70.54;96767.00;1787824;80;27468;-78
2021/04/03 01:58:42;;;;;;;70.30;39.42;;;;;;;1.17;70.62;96775.80;1802950;78;25802;-78
2021/04/03 02:01:11;;;;;;;80.40;39.35;;;;;;;1.13;70.68;96776.63;1820035;78;25716;-78
2021/04/03 02:03:39;;;;;;;74.85;40.03;;;;;;;1.09;70.67;96769.48;1820075;78;25673;-78
2021/04/03 02:06:08;;;;;;;104.55;46.20;;;;;;;1.08;70.61;96770.51;1820151;78;25811;-79
2021/04/03 02:08:36;;;;;;;154.50;70.85;;;;;;;1.06;70.63;96769.84;1820061;78;28465;-78
2021/04/03 02:11:07;;;;;;;93.65;47.43;;;;;;;1.02;70.66;96759.20;1819981;78;25681;-78
2021/04/03 02:13:36;;;;;;;83.17;41.65;;;;;;;1.03;70.82;96763.52;1809780;78;25713;-78
2021/04/03 02:16:07;;;;;;;76.42;41.37;;;;;;;0.99;70.86;96765.34;1802208;78;25722;-79
2021/04/03 02:18:35;;;;;;;98.65;44.40;;;;;;;0.94;70.82;96765.86;1795951;78;25645;-79
2021/04/03 02:21:06;;;;;;;105.37;43.63;;;;;;;0.92;70.83;96769.18;1787748;80;28473;-79
2021/04/03 02:23:35;;;;;;;82.80;41.15;;;;;;;0.92;70.81;96763.03;1798121;78;25718;-78
2021/04/03 02:26:04;;;;;;;83.62;40.50;;;;;;;0.91;70.85;96756.89;1819993;78;25675;-78
2021/04/03 02:28:33;;;;;;;97.90;44.45;;;;;;;0.86;70.91;96753.06;1820175;78;25647;-78
2021/04/03 02:31:01;;;;;;;111.75;47.55;;;;;;;0.86;70.89;96759.20;1820076;78;25754;-78
2021/04/03 02:33:29;;;;;;;93.85;44.50;;;;;;;0.84;70.95;96763.88;1810938;78;28940;-77
2021/04/03 02:35:56;;;;;;;91.50;43.58;;;;;;;0.80;71.02;96763.87;1787720;80;25743;-79
2021/04/03 02:38:24;;;;;;;87.00;42.10;;;;;;;0.76;71.06;96755.89;1787589;79;25777;-78
2021/04/03 02:40:52;;;;;;;93.58;42.75;;;;;;;0.73;71.17;96758.87;1787642;79;25739;-78
2021/04/03 02:43:51;;;;;;;84.80;40.33;;;;;;;0.74;71.33;96757.88;1787753;79;26530;-78
2021/04/03 02:46:32;;;;;;;78.92;41.55;;;;;;;0.72;71.44;96762.55;1778578;80;27595;-77
2021/04/03 02:49:05;;;;;;;85.25;41.08;;;;;;;0.75;71.55;96762.19;1787247;80;25634;-78
2021/04/03 02:51:38;;;;;;;85.53;42.48;;;;;;;0.74;71.68;96757.88;1752474;80;25774;-79
2021/04/03 02:54:11;;;;;;;82.25;43.23;;;;;;;0.77;71.72;96754.89;1725434;82;25737;-78
2021/04/03 02:56:42;;;;;;;97.85;45.05;;;;;;;0.79;71.79;96744.94;1752444;81;25800;-78
2021/04/03 02:59:27;;;;;;;125.90;49.98;;;;;;;0.83;71.83;96752.09;1702339;84;27567;-78
2021/04/03 03:01:57;;;;;;;152.62;55.52;;;;;;;0.84;71.77;96747.94;1752515;81;25812;-78
2021/04/03 03:04:25;;;;;;;127.58;48.28;;;;;;;0.85;71.78;96749.56;1725866;82;25691;-78
2021/04/03 03:06:54;;;;;;;102.40;44.80;;;;;;;0.86;71.79;96743.27;1752434;80;25283;-78
2021/04/03 03:09:23;;;;;;;107.87;49.63;;;;;;;0.81;71.73;96750.92;1725863;82;25837;-77
2021/04/03 03:11:58;;;;;;;112.50;47.00;;;;;;;0.83;71.83;96753.41;1752533;81;28897;-78
2021/04/03 03:14:27;;;;;;;102.22;44.95;;;;;;;0.85;71.94;96756.70;1722657;81;26310;-78
2021/04/03 03:16:57;;;;;;;103.70;44.70;;;;;;;0.80;71.86;96745.27;1754924;81;25834;-77
2021/04/03 03:19:25;;;;;;;99.28;44.60;;;;;;;0.73;71.79;96745.59;1767569;81;26150;-78
2021/04/03 03:21:53;;;;;;;96.72;42.93;;;;;;;0.62;71.83;96740.61;1767697;81;25770;-78
2021/04/03 03:24:21;;;;;;;95.30;44.00;;;;;;;0.54;71.88;96735.30;1751822;81;27497;-78
2021/04/03 03:26:50;;;;;;;83.00;41.00;;;;;;;0.58;72.05;96732.16;1731207;81;25692;-78
2021/04/03 03:29:18;;;;;;;83.95;40.95;;;;;;;0.59;72.06;96732.99;1731333;81;25847;-78
2021/04/03 03:31:46;;;;;;;89.62;43.48;;;;;;;0.59;71.99;96735.65;1731495;81;25687;-77
2021/04/03 03:34:13;;;;;;;99.03;49.08;;;;;;;0.58;71.92;96727.34;1731344;82;25792;-78
2021/04/03 03:36:41;;;;;;;95.77;46.48;;;;;;;0.55;71.90;96727.17;1731266;82;28425;-78
2021/04/03 03:39:10;;;;;;;86.17;42.98;;;;;;;0.52;71.99;96727.99;1739896;82;26550;-78
2021/04/03 03:41:38;;;;;;;86.30;43.13;;;;;;;0.47;72.01;96729.00;1740394;81;25742;-78
2021/04/03 03:44:07;;;;;;;91.12;42.30;;;;;;;0.48;72.02;96729.34;1740217;81;26094;-78
2021/04/03 03:46:35;;;;;;;87.65;40.60;;;;;;;0.44;71.95;96726.17;1740226;82;25360;-78
2021/04/03 03:49:04;;;;;;;86.35;40.20;;;;;;;0.40;71.95;96722.67;1740301;82;28449;-77
2021/04/03 03:51:32;;;;;;;85.15;40.67;;;;;;;0.32;71.87;96725.67;1740119;81;25747;-78
2021/04/03 03:54:00;;;;;;;98.92;42.45;;;;;;;0.30;71.98;96727.65;1740190;81;25814;-77
2021/04/03 03:56:27;;;;;;;88.95;41.02;;;;;;;0.29;72.00;96723.83;1740256;81;25724;-78
2021/04/03 03:58:55;;;;;;;86.60;40.05;;;;;;;0.30;72.02;96720.19;1740250;81;26411;-78
2021/04/03 04:01:22;;;;;;;83.07;40.50;;;;;;;0.24;71.99;96717.67;1740287;81;27608;-78
2021/04/03 04:03:49;;;;;;;95.12;45.58;;;;;;;0.16;72.12;96723.47;1740230;82;25347;-78
2021/04/03 04:06:17;;;;;;;98.17;47.98;;;;;;;0.15;72.20;96721.31;1740206;81;25806;-78
2021/04/03 04:08:45;;;;;;;107.78;49.55;;;;;;;0.16;72.33;96721.66;1740229;82;25953;-78
2021/04/03 04:11:14;;;;;;;120.13;52.60;;;;;;;0.10;72.10;96717.02;1740314;82;25683;-78
2021/04/03 04:13:42;;;;;;;108.22;49.20;;;;;;;0.10;72.14;96714.36;1740148;81;27575;-78
2021/04/03 04:16:09;;;;;;;105.37;47.50;;;;;;;0.08;72.23;96713.69;1740101;82;25633;-78
2021/04/03 04:18:37;;;;;;;85.53;41.73;;;;;;;0.09;72.16;96712.69;1740115;81;25345;-78
2021/04/03 04:21:04;;;;;;;79.90;39.27;;;;;;;0.11;72.20;96715.19;1769069;81;25711;-78
2021/04/03 04:23:32;;;;;;;76.20;37.53;;;;;;;0.05;72.13;96712.67;1770843;80;26377;-78
2021/04/03 04:25:59;;;;;;;70.22;37.73;;;;;;;-0.01;72.13;96716.00;1770774;80;27730;-78
2021/04/03 04:28:27;;;;;;;75.22;39.55;;;;;;;-0.01;72.22;96716.00;1770685;80;26041;-78
2021/04/03 04:30:54;;;;;;;75.55;39.27;;;;;;;-0.05;72.20;96717.30;1740868;80;25657;-78
2021/04/03 04:33:22;;;;;;;83.87;41.95;;;;;;;-0.04;72.28;96716.31;1740164;81;25837;-78
2021/04/03 04:35:49;;;;;;;88.65;41.95;;;;;;;-0.02;72.34;96719.14;1769882;81;25639;-77
2021/04/03 04:38:17;;;;;;;91.28;44.13;;;;;;;-0.01;72.30;96717.32;1766322;80;26707;-77
2021/04/03 04:40:44;;;;;;;102.27;48.33;;;;;;;0.00;72.30;96723.77;1761519;81;25679;-77
2021/04/03 04:43:12;;;;;;;114.82;54.38;;;;;;;0.03;72.38;96720.45;1761537;81;25708;-78
2021/04/03 04:45:39;;;;;;;182.50;79.75;;;;;;;0.07;72.50;96722.64;1761508;81;25729;-78
2021/04/03 04:48:08;;;;;;;189.65;87.42;;;;;;;0.12;72.56;96721.63;1761629;81;25284;-77
2021/04/03 04:50:35;;;;;;;242.18;93.75;;;;;;;0.17;72.57;96718.01;1738900;81;27580;-78
2021/04/03 04:53:03;;;;;;;324.02;108.67;;;;;;;0.23;72.65;96723.17;1731114;81;25704;-78
2021/04/03 04:55:30;;;;;;;370.93;121.40;;;;;;;0.25;72.65;96725.97;1731324;82;25781;-78
2021/04/03 04:57:58;;;;;;;434.35;129.85;;;;;;;0.29;72.70;96731.79;1731301;81;25755;-77
2021/04/03 05:00:26;;;;;;;333.98;106.40;;;;;;;0.38;72.82;96737.94;1731237;82;25822;-77
2021/04/03 05:02:53;;;;;;;233.17;81.28;;;;;;;0.41;72.89;96734.95;1731294;81;27504;-77
2021/04/03 05:05:20;;;;;;;217.10;83.95;;;;;;;0.36;72.82;96737.59;1731111;81;25672;-78
2021/04/03 05:07:48;;;;;;;233.45;85.35;;;;;;;0.43;72.94;96751.06;1731284;82;25732;-77
2021/04/03 05:10:17;;;;;;;196.28;70.65;;;;;;;0.46;73.13;96757.38;1731246;81;26277;-77
2021/04/03 05:12:44;;;;;;;253.00;80.67;;;;;;;0.43;73.07;96768.32;1731228;81;25640;-77
2021/04/03 05:15:12;;;;;;;182.10;62.20;;;;;;;0.48;73.26;96773.16;1758534;81;27506;-77
2021/04/03 05:17:39;;;;;;;120.25;50.55;;;;;;;0.50;73.29;96781.76;1731135;82;25732;-77
2021/04/03 05:20:09;;;;;;;111.05;52.20;;;;;;;0.53;73.35;96778.78;1731151;82;25800;-77
2021/04/03 05:22:36;;;;;;;102.00;49.83;;;;;;;0.61;73.37;96779.61;1731164;81;25796;-77
2021/04/03 05:25:05;;;;;;;107.85;48.55;;;;;;;0.69;73.36;96777.48;1734613;81;25751;-77
2021/04/03 05:27:33;;;;;;;94.70;45.67;;;;;;;0.75;73.33;96782.12;1731213;82;27689;-77
2021/04/03 05:30:00;;;;;;;132.40;55.17;;;;;;;0.82;73.28;96784.47;1731151;81;25752;-77
2021/04/03 05:32:28;;;;;;;158.55;58.30;;;;;;;0.88;73.26;96779.80;1731220;81;25807;-77
2021/04/03 05:34:55;;;;;;;158.00;62.80;;;;;;;0.93;73.25;96785.46;1733257;81;25668;-78
2021/04/03 05:37:23;;;;;;;152.57;65.10;;;;;;;0.98;73.24;96784.94;1761526;81;25930;-78
2021/04/03 05:39:50;;;;;;;158.85;65.00;;;;;;;1.02;73.17;96795.08;1780830;80;27494;-78
2021/04/03 05:42:20;;;;;;;140.88;64.45;;;;;;;1.08;73.10;96797.59;1781316;80;25727;-78
2021/04/03 05:44:49;;;;;;;136.45;63.55;;;;;;;1.13;73.12;96800.55;1771936;80;25706;-77
2021/04/03 05:47:18;;;;;;;138.43;65.00;;;;;;;1.17;73.12;96799.73;1750435;81;26394;-77
2021/04/03 05:49:45;;;;;;;146.20;67.80;;;;;;;1.21;73.14;96797.08;1750449;81;25905;-78
2021/04/03 05:52:13;;;;;;;124.67;64.32;;;;;;;1.23;73.13;96793.73;1750465;81;27489;-77
2021/04/03 05:54:40;;;;;;;126.80;63.00;;;;;;;1.25;73.10;96791.73;1750358;81;25639;-77
2021/04/03 05:57:09;;;;;;;108.05;56.88;;;;;;;1.30;73.11;96790.75;1750379;81;26547;-78
2021/04/03 05:59:36;;;;;;;99.40;49.33;;;;;;;1.36;73.28;96798.86;1750377;81;25664;-78
2021/04/03 06:02:05;;;;;;;105.27;53.52;;;;;;;1.41;73.22;96793.05;1750433;81;25643;-77
2021/04/03 06:04:32;;;;;;;98.97;52.48;;;;;;;1.45;73.20;96795.68;1750577;81;27553;-78
2021/04/03 06:07:01;;;;;;;103.50;54.25;;;;;;;1.48;73.15;96798.01;1750449;81;25689;-77
2021/04/03 06:09:29;;;;;;;101.15;52.15;;;;;;;1.51;73.12;96794.19;1750467;81;25671;-77
2021/04/03 06:11:57;;;;;;;96.72;48.48;;;;;;;1.53;73.09;96790.36;1750517;81;26795;-77
2021/04/03 06:14:24;;;;;;;88.90;46.00;;;;;;;1.60;73.09;96797.98;1750445;80;26420;-78
2021/04/03 06:16:53;;;;;;;87.78;46.10;;;;;;;1.67;73.14;96794.98;1757406;80;27776;-78
2021/04/03 06:19:27;;;;;;;88.95;43.58;;;;;;;1.69;73.05;96802.27;1776177;80;25775;-78
2021/04/03 06:22:00;;;;;;;84.17;41.77;;;;;;;1.74;73.04;96802.60;1769476;80;25720;-78
2021/04/03 06:24:38;;;;;;;72.97;38.95;;;;;;;1.79;73.07;96804.77;1767609;80;25860;-78
2021/04/03 06:27:12;;;;;;;79.80;42.75;;;;;;;1.84;73.08;96805.56;1767480;80;25709;-78
2021/04/03 06:29:47;;;;;;;83.47;43.40;;;;;;;1.90;73.05;96804.89;1766794;80;27518;-80
2021/04/03 06:32:26;;;;;;;84.52;44.10;;;;;;;1.99;72.96;96809.17;1764373;80;26151;-79
2021/04/03 06:34:54;;;;;;;81.67;44.20;;;;;;;2.08;72.94;96810.79;1767658;80;26431;-79
2021/04/03 06:37:32;;;;;;;79.40;43.80;;;;;;;2.18;72.84;96802.09;1767725;80;25788;-79
2021/04/03 06:40:04;;;;;;;87.97;47.13;;;;;;;2.28;72.77;96800.06;1743302;81;25716;-79
2021/04/03 06:42:55;;;;;;;101.10;49.27;;;;;;;2.37;72.91;96802.17;1745251;81;27751;-79
2021/04/03 06:45:35;;;;;;;90.92;47.08;;;;;;;2.47;73.18;96800.11;1747647;81;26105;-79
2021/04/03 06:48:08;;;;;;;85.87;46.42;;;;;;;2.56;73.01;96807.55;1747576;81;25796;-79
2021/04/03 06:50:46;;;;;;;86.35;47.93;;;;;;;2.65;72.84;96810.02;1748905;81;25894;-79
2021/04/03 06:53:19;;;;;;;88.37;47.65;;;;;;;2.72;72.54;96810.95;1744906;81;25807;-80
2021/04/03 06:55:50;;;;;;;91.47;46.48;;;;;;;2.78;72.47;96808.06;1747888;81;27499;-80
2021/04/03 06:58:18;;;;;;;80.45;45.33;;;;;;;2.85;72.49;96807.70;1746556;81;25838;-80
2021/04/03 07:00:49;;;;;;;78.65;42.17;;;;;;;2.89;72.53;96809.84;1744827;81;25849;-80
2021/04/03 07:03:23;;;;;;;79.12;44.53;;;;;;;2.90;72.44;96815.97;1740722;81;25827;-80
2021/04/03 07:05:52;;;;;;;83.10;45.70;;;;;;;2.88;72.38;96812.69;1744692;81;25807;-80
2021/04/03 07:08:20;;;;;;;85.87;45.90;;;;;;;2.96;72.49;96815.78;1748005;81;27569;-80
2021/04/03 07:10:48;;;;;;;81.53;46.05;;;;;;;3.02;72.48;96818.55;1747854;81;25961;-80
2021/04/03 07:13:16;;;;;;;87.72;46.10;;;;;;;3.06;72.36;96814.53;1739656;81;25719;-80
2021/04/03 07:15:45;;;;;;;90.72;48.17;;;;;;;3.10;72.39;96819.84;1731287;82;25723;-80
2021/04/03 07:18:14;;;;;;;96.25;50.75;;;;;;;3.05;72.20;96824.87;1731235;82;26232;-80
2021/04/03 07:20:43;;;;;;;87.30;47.53;;;;;;;3.10;72.43;96826.51;1731308;82;28400;-80
2021/04/03 07:23:12;;;;;;;89.85;48.83;;;;;;;3.15;72.42;96829.45;1731184;82;25712;-80
2021/04/03 07:25:43;;;;;;;91.15;49.95;;;;;;;3.17;72.57;96827.94;1743678;81;25733;-80
2021/04/03 07:28:14;;;;;;;81.35;47.75;;;;;;;3.24;72.65;96837.73;1741293;81;26537;-80
2021/04/03 07:30:48;;;;;;;82.27;45.90;;;;;;;3.32;72.59;96840.83;1744886;81;26255;-80
2021/04/03 07:33:19;;;;;;;91.35;47.95;;;;;;;3.33;72.63;96841.16;1743619;81;27560;-78
2021/04/03 07:35:53;;;;;;;103.97;53.38;;;;;;;3.30;72.65;96834.00;1744411;81;25965;-78
2021/04/03 07:38:37;;;;;;;106.27;53.28;;;;;;;3.30;72.62;96839.34;1746060;81;25712;-80
2021/04/03 07:41:17;;;;;;;101.12;50.88;;;;;;;3.35;72.72;96846.31;1767553;80;26485;-80
2021/04/03 07:43:48;;;;;;;103.80;53.48;;;;;;;3.43;72.83;96848.39;1767589;81;25772;-80
2021/04/03 07:46:24;;;;;;;99.70;53.50;;;;;;;3.50;72.83;96841.84;1767544;81;27482;-80
2021/04/03 07:48:55;;;;;;;108.57;56.48;;;;;;;3.59;72.72;96851.43;1765842;81;25734;-80
2021/04/03 07:51:37;;;;;;;90.97;51.55;;;;;;;3.67;72.64;96852.67;1767710;80;25787;-80
2021/04/03 07:54:06;;;;;;;90.47;50.88;;;;;;;3.71;72.54;96851.31;1767723;81;26630;-80
2021/04/03 07:56:53;;;;;;;93.35;54.40;;;;;;;3.73;72.46;96851.14;1767527;80;25768;-79
2021/04/03 07:59:48;;;;;;;94.85;51.58;;;;;;;3.72;72.29;96854.81;1767507;81;28640;-79
2021/04/03 08:02:20;;;;;;;93.58;51.30;;;;;;;3.80;72.39;96854.22;1767353;81;25755;-80
2021/04/03 08:04:48;;;;;;;103.17;58.40;;;;;;;3.85;72.29;96861.69;1742455;81;25750;-80
2021/04/03 08:07:19;;;;;;;104.53;57.95;;;;;;;3.86;72.17;96857.51;1756437;81;26464;-79
2021/04/03 08:09:47;;;;;;;99.60;57.53;;;;;;;3.92;72.10;96858.60;1764446;81;25808;-80
2021/04/03 08:12:15;;;;;;;104.78;58.38;;;;;;;3.98;72.08;96856.55;1761030;81;27511;-81
2021/04/03 08:14:44;;;;;;;107.07;60.17;;;;;;;4.09;72.24;96857.93;1767506;80;25808;-82
2021/04/03 08:17:21;;;;;;;120.02;63.23;;;;;;;4.18;72.13;96865.66;1767536;81;25335;-82
2021/04/03 08:19:49;;;;;;;109.83;58.63;;;;;;;4.29;72.34;96854.51;1767537;81;25668;-80
2021/04/03 08:22:17;;;;;;;90.50;52.62;;;;;;;4.42;72.46;96859.20;1764036;81;25762;-80
2021/04/03 08:24:58;;;;;;;90.20;54.23;;;;;;;4.56;72.55;96861.02;1736989;82;28400;-80
2021/04/03 08:27:35;;;;;;;90.22;51.83;;;;;;;4.70;72.27;96857.50;1737007;82;26104;-80
2021/04/03 08:30:20;;;;;;;88.07;51.37;;;;;;;4.80;72.08;96856.36;1737106;82;25917;-78
2021/04/03 08:32:34;;;;;;;74.00;43.60;;;;;;;4.87;71.92;96863.44;1735102;82;25719;-79
2021/04/03 08:35:01;;;;;;;82.92;49.40;;;;;;;4.95;71.94;96870.53;1737616;81;25748;-80
2021/04/03 08:37:29;;;;;;;68.50;40.95;;;;;;;4.91;71.60;96866.56;1767511;81;27503;-81
2021/04/03 08:39:56;;;;;;;58.23;36.65;;;;;;;4.73;71.71;96874.16;1774957;80;26223;-81
2021/04/03 08:42:24;;;;;;;57.67;35.83;;;;;;;4.46;71.91;96883.72;1781613;80;25780;-78
2021/04/03 08:44:51;;;;;;;45.38;29.12;;;;;;;4.20;72.18;96886.85;1781559;80;26400;-82
2021/04/03 08:47:19;;;;;;;40.03;26.90;;;;;;;4.16;72.37;96879.70;1781180;80;25261;-82
2021/04/03 08:49:47;;;;;;;35.58;23.35;;;;;;;4.03;72.54;96880.02;1781542;80;27570;-81
2021/04/03 08:52:14;;;;;;;31.80;20.68;;;;;;;3.99;72.73;96885.72;1781399;80;25824;-80
2021/04/03 08:54:44;;;;;;;27.52;18.00;;;;;;;3.97;72.59;96883.76;1781626;80;26235;-80
2021/04/03 08:57:29;;;;;;;28.25;18.10;;;;;;;3.91;72.55;96888.98;1781565;80;25811;-80
2021/04/03 09:00:00;;;;;;;23.38;15.88;;;;;;;3.90;72.59;96889.48;1781401;80;25758;-79
2021/04/03 09:02:29;;;;;;;23.12;15.85;;;;;;;3.93;72.71;96893.64;1780135;80;27489;-79
2021/04/03 09:04:59;;;;;;;25.45;17.98;;;;;;;3.95;72.77;96899.63;1758170;80;25319;-79
2021/04/03 09:07:33;;;;;;;26.20;18.05;;;;;;;3.85;72.52;96898.56;1780949;80;25866;-79
2021/04/03 09:10:17;;;;;;;27.20;17.55;;;;;;;3.63;72.65;96900.75;1780518;80;25712;-80
2021/04/03 09:12:47;;;;;;;27.30;18.27;;;;;;;3.59;73.02;96901.63;1760597;80;25827;-81
2021/04/03 09:15:28;;;;;;;26.68;17.98;;;;;;;3.59;73.15;96905.64;1750542;81;28511;-79
2021/04/03 09:17:58;;;;;;;25.27;17.45;;;;;;;3.58;73.07;96910.65;1770199;80;25771;-81
2021/04/03 09:20:29;;;;;;;25.62;17.62;;;;;;;3.58;73.12;96911.16;1781489;80;25893;-80
2021/04/03 09:23:06;;;;;;;26.10;18.27;;;;;;;3.50;73.36;96916.56;1755215;80;26262;-80
2021/04/03 09:25:33;;;;;;;25.90;17.55;;;;;;;3.51;73.54;96915.52;1781625;80;25751;-80
2021/04/03 09:28:10;;;;;;;23.95;18.32;;;;;;;3.43;73.28;96920.94;1781392;80;28478;-79
2021/04/03 09:30:45;;;;;;;26.90;18.45;;;;;;;3.36;73.57;96926.67;1774129;80;25769;-81
2021/04/03 09:33:25;;;;;;;27.45;18.87;;;;;;;3.35;74.06;96932.52;1766689;80;25344;-80
2021/04/03 09:36:10;;;;;;;26.77;18.30;;;;;;;3.39;74.29;96932.96;1763015;80;26784;-80
2021/04/03 09:38:39;;;;;;;29.23;19.42;;;;;;;3.43;74.28;96931.61;1767170;80;25841;-80
2021/04/03 09:41:27;;;;;;;29.90;20.80;;;;;;;3.47;74.35;96934.26;1747148;81;28545;-80
2021/04/03 09:43:55;;;;;;;30.20;20.05;;;;;;;3.56;74.49;96927.84;1743353;81;25679;-81
2021/04/03 09:46:23;;;;;;;29.42;20.37;;;;;;;3.72;74.67;96931.72;1747718;81;25780;-81
2021/04/03 09:48:51;;;;;;;32.40;22.45;;;;;;;3.85;74.84;96934.61;1746048;81;26758;-81
2021/04/03 09:51:19;;;;;;;34.80;22.55;;;;;;;3.99;74.72;96939.13;1744728;81;25961;-81
2021/04/03 09:53:47;;;;;;;32.13;22.37;;;;;;;4.07;74.58;96938.74;1717329;82;28447;-78
2021/04/03 09:56:16;;;;;;;28.05;20.55;;;;;;;4.17;74.42;96943.31;1747468;81;25720;-81
2021/04/03 09:58:44;;;;;;;29.70;20.75;;;;;;;4.24;74.10;96941.55;1756066;81;25860;-81
2021/04/03 10:01:11;;;;;;;29.67;21.20;;;;;;;4.19;74.01;96942.13;1746322;81;25708;-82
2021/04/03 10:03:39;;;;;;;28.23;19.67;;;;;;;4.24;73.74;96943.72;1740590;81;25799;-81
2021/04/03 10:06:07;;;;;;;30.85;20.30;;;;;;;4.30;73.66;96944.34;1747474;81;27510;-83
2021/04/03 10:08:34;;;;;;;31.12;21.68;;;;;;;4.41;73.54;96944.39;1745739;81;25711;-80
2021/04/03 10:11:02;;;;;;;31.25;21.55;;;;;;;4.46;73.50;96943.84;1747999;81;25659;-81
2021/04/03 10:13:30;;;;;;;28.02;20.10;;;;;;;4.52;73.54;96944.43;1742691;81;25825;-82
2021/04/03 10:15:58;;;;;;;31.48;21.60;;;;;;;4.56;73.28;96946.56;1753937;81;25842;-82
2021/04/03 10:18:25;;;;;;;29.72;20.60;;;;;;;4.54;73.33;96944.58;1737960;81;27509;-81
2021/04/03 10:20:53;;;;;;;33.75;23.45;;;;;;;4.54;73.22;96942.41;1731675;81;26256;-82
2021/04/03 10:23:21;;;;;;;36.25;24.20;;;;;;;4.60;73.17;96945.16;1758240;81;25719;-82
2021/04/03 10:25:49;;;;;;;40.65;26.40;;;;;;;4.65;73.16;96948.12;1761096;81;26489;-82
2021/04/03 10:28:17;;;;;;;38.38;24.52;;;;;;;4.68;73.03;96945.08;1761107;81;25890;-81
2021/04/03 10:30:45;;;;;;;39.08;26.45;;;;;;;4.73;72.91;96943.67;1761790;81;27500;-82
2021/04/03 10:33:12;;;;;;;41.55;26.37;;;;;;;4.75;72.95;96947.83;1761643;81;26184;-81
2021/04/03 10:35:40;;;;;;;41.42;25.10;;;;;;;4.76;72.69;96948.66;1761564;81;25746;-80
2021/04/03 10:38:08;;;;;;;45.83;27.60;;;;;;;4.73;72.78;96952.52;1761605;81;25774;-82
2021/04/03 10:40:36;;;;;;;49.33;30.50;;;;;;;4.77;72.84;96956.50;1770756;80;25744;-81
2021/04/03 10:43:04;;;;;;;46.70;29.55;;;;;;;4.83;73.00;96957.61;1777665;80;27493;-81
2021/04/03 10:45:32;;;;;;;38.15;24.40;;;;;;;4.85;73.07;96955.55;1781553;80;25785;-81
2021/04/03 10:47:59;;;;;;;40.52;27.22;;;;;;;4.82;72.68;96958.13;1781734;80;25711;-81
2021/04/03 10:50:27;;;;;;;43.80;28.32;;;;;;;4.75;72.83;96968.39;1781683;80;25822;-81
2021/04/03 10:52:55;;;;;;;46.50;29.25;;;;;;;4.73;72.94;96968.56;1781642;80;26247;-80
2021/04/03 10:55:22;;;;;;;41.40;26.90;;;;;;;4.71;72.85;96966.08;1769091;80;27487;-81
2021/04/03 10:57:50;;;;;;;39.92;28.02;;;;;;;4.71;72.66;96965.24;1750573;81;25750;-81
2021/04/03 11:00:19;;;;;;;40.67;28.25;;;;;;;4.63;72.74;96966.18;1750645;81;25771;-81
2021/04/03 11:02:46;;;;;;;44.93;30.32;;;;;;;4.54;73.17;96960.61;1759610;80;26491;-81
2021/04/03 11:05:15;;;;;;;44.05;29.90;;;;;;;4.62;73.61;96961.84;1750635;81;25878;-82
2021/04/03 11:07:42;;;;;;;41.33;28.10;;;;;;;4.78;73.82;96964.02;1750643;81;27502;-82
2021/04/03 11:10:12;;;;;;;41.98;28.95;;;;;;;4.95;73.64;96964.14;1750698;80;26192;-82
2021/04/03 11:12:40;;;;;;;40.17;26.25;;;;;;;5.00;73.75;96969.74;1725057;81;25704;-82
2021/04/03 11:15:10;;;;;;;30.68;21.80;;;;;;;5.01;73.58;96968.73;1750571;81;25720;-82
2021/04/03 11:17:38;;;;;;;32.85;23.00;;;;;;;4.95;73.32;96966.82;1750635;81;25804;-81
2021/04/03 11:20:09;;;;;;;27.62;19.35;;;;;;;4.83;73.08;96966.44;1750642;81;27497;-81
2021/04/03 11:22:39;;;;;;;29.87;22.20;;;;;;;4.69;73.01;96972.64;1750836;81;26210;-81
2021/04/03 11:25:08;;;;;;;25.43;19.48;;;;;;;4.49;73.07;96975.53;1750503;81;25736;-82
2021/04/03 11:27:36;;;;;;;28.73;21.15;;;;;;;4.50;73.37;96979.36;1750585;81;26518;-82
2021/04/03 11:30:16;;;;;;;24.67;18.40;;;;;;;4.41;73.18;96977.80;1750551;81;25706;-82
2021/04/03 11:32:48;;;;;;;25.62;17.90;;;;;;;4.38;73.40;96979.99;1750630;81;27495;-81
2021/04/03 11:35:19;;;;;;;25.20;17.05;;;;;;;4.37;73.35;96977.82;1750556;81;25859;-83
2021/04/03 11:37:48;;;;;;;26.37;18.57;;;;;;;4.40;73.22;96980.14;1750388;81;26299;-81
2021/04/03 11:40:18;;;;;;;23.65;15.55;;;;;;;4.46;73.14;96978.09;1746840;81;25685;-82